Time;durP1;ratioP1;P1;durP2;ratioP2;P2;SDS_P1;SDS_P2;PMS_P1;PMS_P2;Temp;Humidity;BMP_temperature;BMP_pressure;BME280_temperature;BME280_humidity;BME280_pressure;Samples;Min_cycle;Max_cycle;Signal;HPM_P1;HPM_P2
2022/08/03 00:01:24;;;;;;;;;;;24.30;64.60;;;;;;4944069;29;19922;-79
2022/08/03 00:03:50;;;;;;;;;;;24.20;64.60;;;;;;4926534;29;19922;-79
2022/08/03 00:06:15;;;;;;;;;;;24.20;64.60;;;;;;4945493;29;19922;-79
2022/08/03 00:08:41;;;;;;;;;;;24.20;64.70;;;;;;4944749;28;19918;-78
2022/08/03 00:11:06;;;;;;;;;;;24.20;64.80;;;;;;4945925;29;19921;-78
2022/08/03 00:13:32;;;;;;;;;;;24.10;65.00;;;;;;4943736;29;19993;-79
2022/08/03 00:15:57;;;;;;;;;;;24.00;65.00;;;;;;4943145;29;20377;-78
2022/08/03 00:18:23;;;;;;;;;;;24.10;64.90;;;;;;4945217;29;19914;-78
2022/08/03 00:20:49;;;;;;;;;;;24.00;65.00;;;;;;4944002;29;20677;-78
2022/08/03 00:23:14;;;;;;;;;;;24.00;64.90;;;;;;4943889;29;19940;-78
2022/08/03 00:25:40;;;;;;;;;;;24.00;65.10;;;;;;4945167;29;19922;-79
2022/08/03 00:28:05;;;;;;;;;;;23.90;65.30;;;;;;4944127;29;19914;-78
2022/08/03 00:30:31;;;;;;;;;;;24.00;64.90;;;;;;4945121;29;20358;-77
2022/08/03 00:32:57;;;;;;;;;;;23.90;65.30;;;;;;4945199;29;19921;-77
2022/08/03 00:35:23;;;;;;;;;;;23.80;65.70;;;;;;4944805;29;19914;-79
2022/08/03 00:37:49;;;;;;;;;;;23.80;65.70;;;;;;4943915;29;19918;-79
2022/08/03 00:40:15;;;;;;;;;;;23.80;65.70;;;;;;4945711;28;20481;-78
2022/08/03 00:42:52;;;;;;;;;;;23.70;66.10;;;;;;4945588;29;19914;-87
2022/08/03 00:45:18;;;;;;;;;;;23.60;66.00;;;;;;4924053;29;20009;-87
2022/08/03 00:47:44;;;;;;;;;;;23.60;66.20;;;;;;4927413;29;19914;-86
2022/08/03 00:50:10;;;;;;;;;;;23.60;66.20;;;;;;4943049;29;20660;-86
2022/08/03 00:52:35;;;;;;;;;;;23.60;66.20;;;;;;4945269;29;20437;-85
2022/08/03 00:55:02;;;;;;;;;;;23.50;66.20;;;;;;4927299;29;19914;-88
2022/08/03 00:57:29;;;;;;;;;;;23.50;66.20;;;;;;4926318;29;19918;-88
2022/08/03 00:59:54;;;;;;;;;;;23.40;66.40;;;;;;4926515;29;19945;-87
2022/08/03 01:02:20;;;;;;;;;;;23.50;66.10;;;;;;4941675;29;19977;-85
2022/08/03 01:04:46;;;;;;;;;;;23.40;66.10;;;;;;4925381;29;19925;-84
2022/08/03 01:07:19;;;;;;;;;;;23.40;66.40;;;;;;4942304;29;19922;-84
2022/08/03 01:09:44;;;;;;;;;;;23.30;66.60;;;;;;4944708;29;19911;-85
2022/08/03 01:12:20;;;;;;;;;;;23.30;66.70;;;;;;4926477;29;20393;-85
2022/08/03 01:15:06;;;;;;;;;;;23.30;66.70;;;;;;4943956;29;19922;-84
2022/08/03 01:17:47;;;;;;;;;;;23.20;66.90;;;;;;4938113;29;19919;-85
2022/08/03 01:20:13;;;;;;;;;;;23.20;67.00;;;;;;4946132;28;20029;-85
2022/08/03 01:22:48;;;;;;;;;;;23.20;67.10;;;;;;4948879;29;19914;-87
2022/08/03 01:25:33;;;;;;;;;;;23.10;67.30;;;;;;4947917;29;19914;-88
2022/08/03 01:28:02;;;;;;;;;;;23.10;67.50;;;;;;4946922;29;19936;-85
2022/08/03 01:30:29;;;;;;;;;;;23.00;67.70;;;;;;4948366;29;19917;-85
2022/08/03 01:32:56;;;;;;;;;;;23.00;67.80;;;;;;4946629;29;20016;-85
2022/08/03 01:35:26;;;;;;;;;;;22.90;68.20;;;;;;4948042;29;20298;-85
2022/08/03 01:37:56;;;;;;;;;;;22.90;68.30;;;;;;4948331;29;19969;-84
2022/08/03 01:40:23;;;;;;;;;;;22.80;68.50;;;;;;4944749;28;20017;-86
2022/08/03 01:42:49;;;;;;;;;;;22.70;68.70;;;;;;4948174;29;20472;-78
2022/08/03 01:45:17;;;;;;;;;;;22.70;68.80;;;;;;4930197;29;20005;-79
2022/08/03 01:47:44;;;;;;;;;;;22.80;68.80;;;;;;4946888;29;19914;-78
2022/08/03 01:50:11;;;;;;;;;;;22.70;69.10;;;;;;4946479;29;20507;-80
2022/08/03 01:52:38;;;;;;;;;;;22.70;69.70;;;;;;4946753;29;19914;-79
2022/08/03 01:55:04;;;;;;;;;;;22.70;69.10;;;;;;4947805;29;19937;-79
2022/08/03 01:57:30;;;;;;;;;;;22.60;69.30;;;;;;4947244;29;19961;-78
2022/08/03 01:59:56;;;;;;;;;;;22.50;69.90;;;;;;4946695;29;20478;-78
2022/08/03 02:02:23;;;;;;;;;;;22.50;69.70;;;;;;4946553;29;20037;-79
2022/08/03 02:04:50;;;;;;;;;;;22.40;70.10;;;;;;4929350;29;19910;-81
2022/08/03 02:07:15;;;;;;;;;;;22.30;70.20;;;;;;4946243;28;19919;-80
2022/08/03 02:09:43;;;;;;;;;;;22.30;70.20;;;;;;4946756;28;19914;-80
2022/08/03 02:12:09;;;;;;;;;;;22.30;70.30;;;;;;4947594;28;19918;-79
2022/08/03 02:14:36;;;;;;;;;;;22.20;70.80;;;;;;4947330;28;19917;-79
2022/08/03 02:17:03;;;;;;;;;;;22.10;71.00;;;;;;4946644;29;19914;-80
2022/08/03 02:19:29;;;;;;;;;;;22.10;71.20;;;;;;4946363;28;19914;-81
2022/08/03 02:21:56;;;;;;;;;;;22.10;71.20;;;;;;4946898;28;19988;-81
2022/08/03 02:24:22;;;;;;;;;;;22.10;71.40;;;;;;4946399;28;19969;-80
2022/08/03 02:26:48;;;;;;;;;;;22.10;71.20;;;;;;4946059;28;19914;-80
2022/08/03 02:29:14;;;;;;;;;;;22.10;71.20;;;;;;4946040;28;20728;-79
2022/08/03 02:31:42;;;;;;;;;;;22.00;71.60;;;;;;4945270;28;20378;-79
2022/08/03 02:34:10;;;;;;;;;;;22.00;71.80;;;;;;4947209;28;19911;-80
2022/08/03 02:36:38;;;;;;;;;;;21.90;71.90;;;;;;4946858;28;20013;-79
2022/08/03 02:39:06;;;;;;;;;;;21.90;72.20;;;;;;4945455;28;19977;-79
2022/08/03 02:41:36;;;;;;;;;;;21.80;72.30;;;;;;4938715;28;19957;-79
2022/08/03 02:44:04;;;;;;;;;;;21.80;72.60;;;;;;4941419;29;20283;-81
2022/08/03 02:46:31;;;;;;;;;;;21.80;72.70;;;;;;4946191;28;19917;-81
2022/08/03 02:48:59;;;;;;;;;;;21.80;72.80;;;;;;4946445;28;19915;-79
2022/08/03 02:51:26;;;;;;;;;;;21.70;73.10;;;;;;4945828;28;19910;-78
2022/08/03 02:53:53;;;;;;;;;;;21.50;73.60;;;;;;4946278;28;20437;-79
2022/08/03 02:56:20;;;;;;;;;;;21.60;73.60;;;;;;4945816;28;19910;-79
2022/08/03 02:58:48;;;;;;;;;;;21.50;73.80;;;;;;4946376;28;20770;-78
2022/08/03 03:01:14;;;;;;;;;;;21.60;73.80;;;;;;4945889;29;19934;-77
2022/08/03 03:03:40;;;;;;;;;;;21.60;73.90;;;;;;4946004;28;19944;-78
2022/08/03 03:06:06;;;;;;;;;;;21.50;74.00;;;;;;4945267;28;20148;-79
2022/08/03 03:08:32;;;;;;;;;;;21.50;74.30;;;;;;4928428;29;19919;-79
2022/08/03 03:10:59;;;;;;;;;;;21.40;74.40;;;;;;4944653;29;19936;-79
2022/08/03 03:13:26;;;;;;;;;;;21.40;74.60;;;;;;4946308;29;19915;-79
2022/08/03 03:15:53;;;;;;;;;;;21.40;74.70;;;;;;4944606;29;19946;-79
2022/08/03 03:18:19;;;;;;;;;;;21.30;75.00;;;;;;4945365;29;20279;-80
2022/08/03 03:20:46;;;;;;;;;;;21.30;75.10;;;;;;4945746;29;19973;-80
2022/08/03 03:23:12;;;;;;;;;;;21.20;75.50;;;;;;4945499;29;20481;-79
2022/08/03 03:25:38;;;;;;;;;;;21.20;75.70;;;;;;4946445;29;19914;-79
2022/08/03 03:28:05;;;;;;;;;;;21.20;75.70;;;;;;4945299;29;19914;-79
2022/08/03 03:30:30;;;;;;;;;;;21.10;75.90;;;;;;4941592;29;19929;-79
2022/08/03 03:32:57;;;;;;;;;;;21.10;76.20;;;;;;4945877;29;19957;-78
2022/08/03 03:35:22;;;;;;;;;;;21.20;75.90;;;;;;4944160;29;20271;-79
2022/08/03 03:37:48;;;;;;;;;;;21.20;75.50;;;;;;4945659;29;19934;-79
2022/08/03 03:40:14;;;;;;;;;;;21.10;76.00;;;;;;4944516;28;19922;-80
2022/08/03 03:42:39;;;;;;;;;;;21.10;76.20;;;;;;4943956;28;20232;-80
2022/08/03 03:45:05;;;;;;;;;;;21.10;76.00;;;;;;4928690;29;19985;-79
2022/08/03 03:47:32;;;;;;;;;;;21.10;76.20;;;;;;4944257;29;19914;-79
2022/08/03 03:49:58;;;;;;;;;;;21.10;76.20;;;;;;4926635;29;19928;-80
2022/08/03 03:52:23;;;;;;;;;;;21.00;76.40;;;;;;4942404;29;19987;-80
2022/08/03 03:54:49;;;;;;;;;;;21.00;76.60;;;;;;4928455;29;20412;-80
2022/08/03 03:57:14;;;;;;;;;;;21.00;76.60;;;;;;4945483;29;19920;-79
2022/08/03 03:59:40;;;;;;;;;;;21.00;76.80;;;;;;4944678;29;19925;-80
2022/08/03 04:02:07;;;;;;;;;;;20.90;76.90;;;;;;4945436;29;19921;-79
2022/08/03 04:12:49;;;;;;;;;;;20.80;77.70;;;;;;4945514;29;20281;-76
2022/08/03 04:15:15;;;;;;;;;;;20.80;77.80;;;;;;4944579;29;19914;-76
2022/08/03 04:17:41;;;;;;;;;;;20.70;78.40;;;;;;4944860;29;19914;-76
2022/08/03 04:20:08;;;;;;;;;;;20.70;78.20;;;;;;4944368;29;19922;-76
2022/08/03 04:22:34;;;;;;;;;;;20.70;78.40;;;;;;4944638;29;19921;-77
2022/08/03 04:25:01;;;;;;;;;;;20.70;78.50;;;;;;4944794;29;19914;-77
2022/08/03 04:27:31;;;;;;;;;;;20.60;79.20;;;;;;4945085;29;19914;-76
2022/08/03 04:29:58;;;;;;;;;;;20.70;78.80;;;;;;4941824;29;19914;-76
2022/08/03 04:32:27;;;;;;;;;;;20.60;79.00;;;;;;4944884;29;19922;-77
2022/08/03 04:34:53;;;;;;;;;;;20.60;79.30;;;;;;4944612;29;20802;-76
2022/08/03 04:37:33;;;;;;;;;;;20.60;79.40;;;;;;4943847;29;19925;-76
2022/08/03 04:40:00;;;;;;;;;;;20.50;79.70;;;;;;4947969;28;19940;-78
2022/08/03 04:42:26;;;;;;;;;;;20.40;80.20;;;;;;4945128;28;19921;-79
2022/08/03 04:44:52;;;;;;;;;;;20.40;80.30;;;;;;4926910;29;19915;-79
2022/08/03 04:47:18;;;;;;;;;;;20.50;80.10;;;;;;4944954;29;19914;-79
2022/08/03 04:49:44;;;;;;;;;;;20.30;80.70;;;;;;4942502;29;19992;-79
2022/08/03 04:52:10;;;;;;;;;;;20.40;80.70;;;;;;4943027;29;19923;-81
2022/08/03 04:54:42;;;;;;;;;;;20.40;80.90;;;;;;4942884;28;19997;-82
2022/08/03 04:57:08;;;;;;;;;;;20.70;79.90;;;;;;4942841;29;19918;-79
2022/08/03 04:59:34;;;;;;;;;;;21.10;78.40;;;;;;4941954;29;19920;-83
2022/08/03 05:01:59;;;;;;;;;;;21.30;77.40;;;;;;4925013;29;19927;-83
2022/08/03 05:04:25;;;;;;;;;;;21.60;76.40;;;;;;4941057;29;20621;-81
2022/08/03 05:06:50;;;;;;;;;;;21.90;75.60;;;;;;4942953;29;19957;-81
2022/08/03 05:09:16;;;;;;;;;;;21.90;75.40;;;;;;4942626;29;20417;-82
2022/08/03 05:11:41;;;;;;;;;;;21.90;75.50;;;;;;4943042;29;19915;-80
2022/08/03 05:14:07;;;;;;;;;;;22.30;74.60;;;;;;4943281;29;20398;-80
2022/08/03 05:16:32;;;;;;;;;;;22.40;74.30;;;;;;4943430;29;20372;-83
2022/08/03 05:18:58;;;;;;;;;;;22.60;73.40;;;;;;4942449;29;19914;-81
2022/08/03 05:21:23;;;;;;;;;;;23.40;71.20;;;;;;4942362;29;19922;-82
2022/08/03 05:23:49;;;;;;;;;;;23.80;70.10;;;;;;4943510;29;20290;-82
2022/08/03 05:26:15;;;;;;;;;;;24.00;69.60;;;;;;4943805;29;20461;-81
2022/08/03 05:28:40;;;;;;;;;;;24.20;68.70;;;;;;4942341;29;19922;-80
2022/08/03 05:31:06;;;;;;;;;;;24.60;68.00;;;;;;4942494;29;19914;-81
2022/08/03 05:33:31;;;;;;;;;;;24.90;66.70;;;;;;4942742;29;19918;-81
2022/08/03 05:35:58;;;;;;;;;;;25.20;66.10;;;;;;4940760;29;19984;-80
2022/08/03 05:38:24;;;;;;;;;;;25.40;66.20;;;;;;4944287;29;19910;-80
2022/08/03 05:40:50;;;;;;;;;;;25.70;65.00;;;;;;4943893;28;19922;-90
2022/08/03 05:43:15;;;;;;;;;;;25.70;64.80;;;;;;4944857;29;20710;-88
2022/08/03 05:45:41;;;;;;;;;;;25.90;64.60;;;;;;4943693;29;19921;-87
2022/08/03 05:48:06;;;;;;;;;;;26.00;64.20;;;;;;4944855;29;19921;-87
2022/08/03 05:50:32;;;;;;;;;;;26.60;63.00;;;;;;4944863;28;19917;-88
2022/08/03 05:52:57;;;;;;;;;;;26.70;62.90;;;;;;4926544;29;20313;-88
2022/08/03 05:55:23;;;;;;;;;;;26.90;62.50;;;;;;4942999;29;19910;-88
2022/08/03 05:57:48;;;;;;;;;;;27.20;61.40;;;;;;4941973;29;19915;-85
2022/08/03 06:00:15;;;;;;;;;;;27.40;61.40;;;;;;4943264;29;19925;-86
2022/08/03 06:02:41;;;;;;;;;;;27.50;61.10;;;;;;4942060;29;19921;-86
2022/08/03 06:05:07;;;;;;;;;;;27.50;60.60;;;;;;4941870;28;19918;-85
2022/08/03 06:07:32;;;;;;;;;;;28.10;59.90;;;;;;4945203;29;20355;-84
2022/08/03 06:10:00;;;;;;;;;;;28.30;59.70;;;;;;4944213;29;19993;-84
2022/08/03 06:12:26;;;;;;;;;;;28.60;59.50;;;;;;4946533;29;20013;-82
2022/08/03 06:14:51;;;;;;;;;;;29.10;57.90;;;;;;4943977;29;19921;-85
2022/08/03 06:17:17;;;;;;;;;;;29.00;57.80;;;;;;4946373;29;20441;-86
2022/08/03 06:19:42;;;;;;;;;;;29.20;57.10;;;;;;4928252;29;19958;-82
2022/08/03 06:22:08;;;;;;;;;;;29.20;57.30;;;;;;4946277;29;19925;-82
2022/08/03 06:24:33;;;;;;;;;;;29.20;56.50;;;;;;4945248;29;19953;-82
2022/08/03 06:26:59;;;;;;;;;;;29.90;55.80;;;;;;4946628;29;20487;-81
2022/08/03 06:29:24;;;;;;;;;;;30.20;54.90;;;;;;4925847;29;20699;-81
2022/08/03 06:31:50;;;;;;;;;;;29.60;55.90;;;;;;4946439;29;19910;-81
2022/08/03 06:34:16;;;;;;;;;;;30.10;55.00;;;;;;4943281;29;19914;-81
2022/08/03 06:36:41;;;;;;;;;;;30.40;54.30;;;;;;4946211;29;19989;-81
2022/08/03 06:39:06;;;;;;;;;;;31.00;53.90;;;;;;4944414;29;19933;-80
2022/08/03 06:41:32;;;;;;;;;;;31.00;53.90;;;;;;4944948;28;20590;-82
2022/08/03 06:43:58;;;;;;;;;;;30.80;54.00;;;;;;4941422;29;21780;-85
2022/08/03 06:46:23;;;;;;;;;;;30.40;54.50;;;;;;4945121;29;19969;-84
2022/08/03 06:48:49;;;;;;;;;;;30.60;54.00;;;;;;4944778;29;19914;-86
2022/08/03 06:51:14;;;;;;;;;;;31.40;53.20;;;;;;4942726;28;20460;-85
2022/08/03 06:53:40;;;;;;;;;;;31.60;52.60;;;;;;4945224;28;20373;-85
2022/08/03 06:56:06;;;;;;;;;;;32.10;51.80;;;;;;4927828;28;20458;-84
2022/08/03 06:58:32;;;;;;;;;;;32.20;51.10;;;;;;4945441;28;20662;-85
2022/08/03 07:00:57;;;;;;;;;;;32.50;50.20;;;;;;4926199;28;19926;-85
2022/08/03 07:03:23;;;;;;;;;;;32.50;50.70;;;;;;4947127;28;19914;-85
2022/08/03 07:05:50;;;;;;;;;;;32.50;50.50;;;;;;4945073;28;19922;-83
2022/08/03 07:08:16;;;;;;;;;;;32.80;50.50;;;;;;4945344;28;20088;-83
2022/08/03 07:10:41;;;;;;;;;;;32.80;50.20;;;;;;4942950;28;20378;-82
2022/08/03 07:13:07;;;;;;;;;;;33.00;49.70;;;;;;4946631;28;19921;-82
2022/08/03 07:15:33;;;;;;;;;;;33.10;49.60;;;;;;4944968;28;19919;-82
2022/08/03 07:17:59;;;;;;;;;;;33.80;49.20;;;;;;4943285;28;19915;-83
2022/08/03 07:20:24;;;;;;;;;;;34.00;48.60;;;;;;4951250;28;19976;-82
2022/08/03 07:22:50;;;;;;;;;;;34.90;47.40;;;;;;4943965;28;19918;-83
2022/08/03 07:25:16;;;;;;;;;;;34.70;47.30;;;;;;4949488;28;20025;-83
2022/08/03 07:27:45;;;;;;;;;;;34.90;46.70;;;;;;4945945;28;19961;-82
2022/08/03 07:30:11;;;;;;;;;;;35.50;46.70;;;;;;4943957;28;19919;-83
2022/08/03 07:32:36;;;;;;;;;;;36.00;45.60;;;;;;4944169;28;19914;-83
2022/08/03 07:35:02;;;;;;;;;;;35.80;45.40;;;;;;4945228;29;20382;-83
2022/08/03 07:37:28;;;;;;;;;;;36.30;45.00;;;;;;4945049;28;20033;-83
2022/08/03 07:39:54;;;;;;;;;;;36.40;44.70;;;;;;4926305;28;20648;-83
2022/08/03 07:42:19;;;;;;;;;;;36.30;44.50;;;;;;4945368;29;20037;-79
2022/08/03 07:44:45;;;;;;;;;;;37.00;43.80;;;;;;4927654;29;20001;-80
2022/08/03 07:47:10;;;;;;;;;;;37.70;43.70;;;;;;4926942;29;20009;-80
2022/08/03 07:49:39;;;;;;;;;;;37.90;43.10;;;;;;4942477;29;19973;-80
2022/08/03 07:54:49;;;;;;;;;;;37.90;42.80;;;;;;4944908;29;19969;-79
2022/08/03 07:57:15;;;;;;;;;;;39.00;42.90;;;;;;4943720;29;19918;-79
2022/08/03 07:59:41;;;;;;;;;;;38.60;43.00;;;;;;4924756;29;20223;-79
2022/08/03 08:02:07;;;;;;;;;;;38.70;42.40;;;;;;4927249;29;19914;-79
2022/08/03 08:04:32;;;;;;;;;;;38.40;42.30;;;;;;4943605;28;19925;-79
2022/08/03 08:06:58;;;;;;;;;;;38.60;42.70;;;;;;4943934;29;19918;-79
2022/08/03 08:09:24;;;;;;;;;;;38.80;42.00;;;;;;4942499;29;19910;-79
2022/08/03 08:11:49;;;;;;;;;;;39.20;42.20;;;;;;4944438;29;20009;-80
2022/08/03 08:14:15;;;;;;;;;;;39.80;41.80;;;;;;4943429;29;19918;-79
2022/08/03 08:16:40;;;;;;;;;;;39.40;41.50;;;;;;4944167;29;19914;-79
2022/08/03 08:19:06;;;;;;;;;;;39.40;41.10;;;;;;4942716;29;20008;-79
2022/08/03 08:21:31;;;;;;;;;;;40.30;41.30;;;;;;4925981;29;19933;-79
2022/08/03 08:23:57;;;;;;;;;;;40.80;40.30;;;;;;4943310;29;19941;-79
2022/08/03 08:26:22;;;;;;;;;;;41.10;39.80;;;;;;4944030;28;20006;-79
2022/08/03 08:28:49;;;;;;;;;;;41.30;38.90;;;;;;4941318;28;19944;-79
2022/08/03 08:31:14;;;;;;;;;;;42.10;37.50;;;;;;4940769;29;19914;-79
2022/08/03 08:33:40;;;;;;;;;;;43.00;37.40;;;;;;4944350;29;19970;-79
2022/08/03 08:36:07;;;;;;;;;;;43.50;37.00;;;;;;4943718;29;19944;-79
2022/08/03 08:38:33;;;;;;;;;;;43.50;37.50;;;;;;4943640;29;20088;-79
2022/08/03 08:40:59;;;;;;;;;;;43.40;35.60;;;;;;4942701;28;19922;-85
2022/08/03 08:43:25;;;;;;;;;;;43.70;35.70;;;;;;4925756;29;19926;-84
2022/08/03 08:45:52;;;;;;;;;;;43.90;34.70;;;;;;4943474;29;19915;-85
2022/08/03 08:48:21;;;;;;;;;;;44.30;35.40;;;;;;4943157;29;20607;-84
2022/08/03 08:50:47;;;;;;;;;;;43.80;35.10;;;;;;4940821;29;19915;-84
2022/08/03 08:53:13;;;;;;;;;;;44.20;34.80;;;;;;4943536;29;19922;-84
2022/08/03 08:55:38;;;;;;;;;;;43.90;35.30;;;;;;4943738;29;19955;-84
2022/08/03 08:58:05;;;;;;;;;;;44.40;35.40;;;;;;4943749;29;19914;-84
2022/08/03 09:00:31;;;;;;;;;;;44.40;34.50;;;;;;4941607;29;19923;-84
2022/08/03 09:02:57;;;;;;;;;;;45.10;35.00;;;;;;4944050;29;20060;-85
2022/08/03 09:05:22;;;;;;;;;;;44.90;34.30;;;;;;4943335;29;19973;-85
2022/08/03 09:07:48;;;;;;;;;;;44.50;34.10;;;;;;4926395;29;19924;-84
2022/08/03 09:10:18;;;;;;;;;;;43.70;34.30;;;;;;4941325;29;19933;-84
2022/08/03 09:12:44;;;;;;;;;;;44.70;34.30;;;;;;4943890;29;20338;-84
2022/08/03 09:15:17;;;;;;;;;;;45.40;34.60;;;;;;4943793;29;19914;-84
2022/08/03 09:17:43;;;;;;;;;;;45.20;34.20;;;;;;4943549;29;19918;-84
2022/08/03 09:20:09;;;;;;;;;;;44.90;34.50;;;;;;4942077;29;19929;-84
2022/08/03 09:22:35;;;;;;;;;;;45.10;34.20;;;;;;4940621;28;19914;-84
2022/08/03 09:25:04;;;;;;;;;;;45.40;34.30;;;;;;4944181;29;20683;-83
2022/08/03 09:27:40;;;;;;;;;;;46.00;34.00;;;;;;4943480;29;19942;-84
2022/08/03 09:30:11;;;;;;;;;;;44.60;32.90;;;;;;4941399;29;19921;-84
2022/08/03 09:32:37;;;;;;;;;;;45.10;34.00;;;;;;4943908;29;19953;-83
2022/08/03 09:35:03;;;;;;;;;;;45.10;34.00;;;;;;4944151;29;19958;-84
2022/08/03 09:37:28;;;;;;;;;;;45.70;34.40;;;;;;4943527;29;19941;-83
2022/08/03 09:39:54;;;;;;;;;;;45.70;34.20;;;;;;4941701;28;19944;-83
2022/08/03 09:42:23;;;;;;;;;;;45.60;33.10;;;;;;4947842;29;19918;-84
2022/08/03 09:44:50;;;;;;;;;;;45.80;33.60;;;;;;4945410;29;19925;-84
2022/08/03 09:47:27;;;;;;;;;;;45.90;33.50;;;;;;4945005;29;19915;-84
2022/08/03 09:50:00;;;;;;;;;;;46.10;33.50;;;;;;4943796;29;19964;-83
2022/08/03 09:52:34;;;;;;;;;;;45.50;32.90;;;;;;4947018;29;20691;-83
2022/08/03 09:55:01;;;;;;;;;;;45.40;34.10;;;;;;4946053;29;20020;-84
2022/08/03 09:57:27;;;;;;;;;;;45.00;34.40;;;;;;4947540;29;19915;-83
2022/08/03 09:59:57;;;;;;;;;;;45.80;34.70;;;;;;4927754;29;19921;-83
2022/08/03 10:02:23;;;;;;;;;;;45.70;34.20;;;;;;4929472;29;19926;-83
2022/08/03 10:04:52;;;;;;;;;;;45.20;34.00;;;;;;4930696;29;19949;-84
2022/08/03 10:07:19;;;;;;;;;;;46.10;34.70;;;;;;4944877;29;20045;-84
2022/08/03 10:09:53;;;;;;;;;;;45.70;33.10;;;;;;4944203;28;19915;-83
2022/08/03 10:12:19;;;;;;;;;;;45.20;33.20;;;;;;4947356;28;19914;-84
2022/08/03 10:14:45;;;;;;;;;;;44.60;33.80;;;;;;4946311;28;20756;-84
2022/08/03 10:17:11;;;;;;;;;;;44.90;34.10;;;;;;4945081;28;20899;-84
2022/08/03 10:19:37;;;;;;;;;;;44.50;34.50;;;;;;4942312;28;20306;-84
2022/08/03 10:22:05;;;;;;;;;;;45.60;33.80;;;;;;4939026;29;19953;-84
2022/08/03 10:24:33;;;;;;;;;;;45.70;34.00;;;;;;4946934;28;19915;-84
2022/08/03 10:27:04;;;;;;;;;;;44.10;34.20;;;;;;4946100;28;19918;-83
2022/08/03 10:29:33;;;;;;;;;;;44.20;34.60;;;;;;4941612;29;19914;-82
2022/08/03 10:32:00;;;;;;;;;;;43.30;33.40;;;;;;4944103;29;20449;-82
2022/08/03 10:34:27;;;;;;;;;;;41.90;33.70;;;;;;4947129;28;19914;-83
2022/08/03 10:36:56;;;;;;;;;;;40.70;35.10;;;;;;4947534;28;19991;-83
2022/08/03 10:39:23;;;;;;;;;;;40.00;35.70;;;;;;4945358;28;20741;-83
2022/08/03 10:41:49;;;;;;;;;;;39.50;36.30;;;;;;4949794;28;19919;-80
2022/08/03 10:44:19;;;;;;;;;;;38.60;35.90;;;;;;4946953;28;20001;-80
2022/08/03 10:46:46;;;;;;;;;;;38.60;36.70;;;;;;4942693;28;19922;-80
2022/08/03 10:49:13;;;;;;;;;;;38.70;36.20;;;;;;4945538;28;19925;-80
2022/08/03 10:51:40;;;;;;;;;;;37.80;38.10;;;;;;4944184;28;19966;-80
2022/08/03 10:54:05;;;;;;;;;;;37.80;38.50;;;;;;4944538;28;20120;-80
2022/08/03 10:59:15;;;;;;;;;;;37.70;39.20;;;;;;4944137;29;19941;-80
2022/08/03 11:02:01;;;;;;;;;;;37.30;39.10;;;;;;4943732;29;20382;-80
2022/08/03 11:04:28;;;;;;;;;;;37.40;39.00;;;;;;4943105;29;19925;-79
2022/08/03 11:07:12;;;;;;;;;;;37.10;38.80;;;;;;4944270;29;19914;-79
2022/08/03 11:09:41;;;;;;;;;;;37.00;39.50;;;;;;4945107;29;19915;-81
2022/08/03 11:12:25;;;;;;;;;;;37.40;40.30;;;;;;4947406;29;20077;-80
2022/08/03 11:14:51;;;;;;;;;;;37.20;39.70;;;;;;4945969;28;19917;-79
2022/08/03 11:17:17;;;;;;;;;;;37.40;38.10;;;;;;4944950;29;19914;-79
2022/08/03 11:19:44;;;;;;;;;;;37.00;38.90;;;;;;4944140;29;20013;-79
2022/08/03 11:22:10;;;;;;;;;;;36.50;38.40;;;;;;4946297;29;19977;-79
2022/08/03 11:24:35;;;;;;;;;;;36.60;38.10;;;;;;4945889;29;19914;-79
2022/08/03 11:27:13;;;;;;;;;;;36.40;38.70;;;;;;4945725;29;20487;-79
2022/08/03 11:29:53;;;;;;;;;;;36.00;38.20;;;;;;4942958;29;20480;-79
2022/08/03 11:32:37;;;;;;;;;;;36.20;39.40;;;;;;4942208;29;19914;-79
2022/08/03 11:35:18;;;;;;;;;;;36.50;40.90;;;;;;4942019;29;20037;-79
2022/08/03 11:37:53;;;;;;;;;;;36.50;38.70;;;;;;4941035;29;19915;-79
2022/08/03 11:40:39;;;;;;;;;;;36.10;37.80;;;;;;4941583;29;19945;-80
2022/08/03 11:43:28;;;;;;;;;;;36.10;38.80;;;;;;4943072;29;19918;-85
2022/08/03 11:46:00;;;;;;;;;;;35.90;40.20;;;;;;4925997;29;19918;-86
2022/08/03 11:48:27;;;;;;;;;;;35.90;39.40;;;;;;4943604;29;20864;-85
2022/08/03 11:50:52;;;;;;;;;;;35.60;38.50;;;;;;4943473;29;20017;-85
2022/08/03 11:53:18;;;;;;;;;;;35.40;39.60;;;;;;4944844;29;20333;-85
2022/08/03 11:55:47;;;;;;;;;;;35.80;40.70;;;;;;4944650;29;19969;-85
2022/08/03 11:58:20;;;;;;;;;;;36.00;40.00;;;;;;4946272;29;19915;-83
2022/08/03 12:00:46;;;;;;;;;;;35.90;39.80;;;;;;4942965;29;19918;-83
2022/08/03 12:03:13;;;;;;;;;;;35.60;38.40;;;;;;4945377;28;19915;-84
2022/08/03 12:05:40;;;;;;;;;;;35.60;38.50;;;;;;4944476;29;19929;-84
2022/08/03 12:08:06;;;;;;;;;;;35.50;38.30;;;;;;4945231;29;19922;-85
2022/08/03 12:10:32;;;;;;;;;;;35.40;38.60;;;;;;4943242;29;19914;-83
2022/08/03 12:12:58;;;;;;;;;;;35.40;38.40;;;;;;4944876;29;20569;-83
2022/08/03 12:15:25;;;;;;;;;;;35.50;39.10;;;;;;4945683;28;19992;-83
2022/08/03 12:17:50;;;;;;;;;;;35.50;39.60;;;;;;4944559;29;20342;-83
2022/08/03 12:20:20;;;;;;;;;;;35.80;41.30;;;;;;4940661;29;19965;-83
2022/08/03 12:22:45;;;;;;;;;;;35.80;40.80;;;;;;4942209;29;20069;-84
2022/08/03 12:25:19;;;;;;;;;;;36.00;41.00;;;;;;4942639;29;20001;-83
2022/08/03 12:27:45;;;;;;;;;;;35.50;38.40;;;;;;4946198;29;20375;-83
2022/08/03 12:30:11;;;;;;;;;;;35.30;39.90;;;;;;4942758;29;19921;-82
2022/08/03 12:32:36;;;;;;;;;;;35.40;39.50;;;;;;4943832;29;19918;-82
2022/08/03 12:35:04;;;;;;;;;;;35.20;39.00;;;;;;4944869;29;19915;-83
2022/08/03 12:37:30;;;;;;;;;;;35.30;39.80;;;;;;4944282;29;19914;-83
2022/08/03 12:40:00;;;;;;;;;;;35.50;40.90;;;;;;4924642;29;19918;-81
2022/08/03 12:42:32;;;;;;;;;;;35.60;40.40;;;;;;4943143;29;19956;-79
2022/08/03 12:44:58;;;;;;;;;;;35.30;39.50;;;;;;4943099;29;19970;-78
2022/08/03 12:47:23;;;;;;;;;;;35.10;38.60;;;;;;4944425;29;19910;-79
2022/08/03 12:49:50;;;;;;;;;;;35.30;41.10;;;;;;4939240;28;19915;-78
2022/08/03 12:52:16;;;;;;;;;;;35.50;40.40;;;;;;4940102;28;19919;-78
2022/08/03 12:54:42;;;;;;;;;;;35.50;40.70;;;;;;4943704;29;19964;-78
2022/08/03 12:57:09;;;;;;;;;;;35.50;41.00;;;;;;4926542;29;19953;-79
2022/08/03 12:59:35;;;;;;;;;;;35.50;39.70;;;;;;4936487;28;19914;-79
2022/08/03 13:02:04;;;;;;;;;;;35.60;39.30;;;;;;4943685;29;19937;-78
2022/08/03 13:04:35;;;;;;;;;;;35.30;39.70;;;;;;4944637;29;19953;-78
2022/08/03 13:07:02;;;;;;;;;;;35.30;39.60;;;;;;4926102;29;19926;-78
2022/08/03 13:09:28;;;;;;;;;;;35.30;40.20;;;;;;4942756;29;20009;-78
2022/08/03 13:12:23;;;;;;;;;;;35.40;40.70;;;;;;4944304;29;19914;-78
2022/08/03 13:14:50;;;;;;;;;;;35.40;39.40;;;;;;4934996;29;19921;-78
2022/08/03 13:17:16;;;;;;;;;;;35.30;39.30;;;;;;4946281;28;19952;-78
2022/08/03 13:19:42;;;;;;;;;;;35.00;39.30;;;;;;4939875;29;19929;-78
2022/08/03 13:22:21;;;;;;;;;;;35.10;39.20;;;;;;4944840;29;20001;-78
2022/08/03 13:24:48;;;;;;;;;;;35.20;41.40;;;;;;4941997;29;20050;-79
2022/08/03 13:27:13;;;;;;;;;;;35.10;40.10;;;;;;4943071;29;19953;-79
2022/08/03 13:29:41;;;;;;;;;;;35.00;40.10;;;;;;4940576;28;20586;-78
2022/08/03 13:32:06;;;;;;;;;;;35.30;40.40;;;;;;4940785;29;19918;-79
2022/08/03 13:34:32;;;;;;;;;;;35.20;40.30;;;;;;4943274;29;19922;-78
2022/08/03 13:36:58;;;;;;;;;;;34.90;40.50;;;;;;4942948;29;20571;-78
2022/08/03 13:39:23;;;;;;;;;;;34.70;38.60;;;;;;4942262;29;20404;-78
2022/08/03 13:41:49;;;;;;;;;;;34.70;38.90;;;;;;4942611;29;19922;-85
2022/08/03 13:44:15;;;;;;;;;;;34.80;38.60;;;;;;4943824;28;19921;-86
2022/08/03 13:46:41;;;;;;;;;;;34.80;39.80;;;;;;4944483;29;19914;-86
2022/08/03 13:49:07;;;;;;;;;;;34.80;40.00;;;;;;4944122;29;19911;-86
2022/08/03 13:51:33;;;;;;;;;;;35.00;39.30;;;;;;4943307;29;19929;-86
2022/08/03 13:53:58;;;;;;;;;;;35.10;39.60;;;;;;4944565;29;20465;-86
2022/08/03 13:56:28;;;;;;;;;;;35.00;38.70;;;;;;4943625;29;19918;-86
2022/08/03 13:58:53;;;;;;;;;;;35.00;39.90;;;;;;4924831;29;20428;-87
2022/08/03 14:01:19;;;;;;;;;;;34.80;38.10;;;;;;4942807;29;20370;-87
2022/08/03 14:03:51;;;;;;;;;;;34.60;38.60;;;;;;4943683;29;20481;-86
2022/08/03 14:06:17;;;;;;;;;;;34.60;37.90;;;;;;4941655;29;19927;-87
2022/08/03 14:08:43;;;;;;;;;;;34.50;38.40;;;;;;4943684;29;19918;-87
2022/08/03 14:11:09;;;;;;;;;;;34.70;39.40;;;;;;4938859;29;19918;-87
2022/08/03 14:13:35;;;;;;;;;;;34.70;40.70;;;;;;4943584;29;19919;-87
2022/08/03 14:16:00;;;;;;;;;;;34.50;37.70;;;;;;4928135;29;19911;-88
2022/08/03 14:18:26;;;;;;;;;;;34.30;37.80;;;;;;4943099;28;19950;-87
2022/08/03 14:20:51;;;;;;;;;;;34.60;39.70;;;;;;4925309;29;19930;-86
2022/08/03 14:23:17;;;;;;;;;;;34.40;39.50;;;;;;4943679;29;19914;-87
2022/08/03 14:25:43;;;;;;;;;;;34.60;39.20;;;;;;4943975;28;20297;-86
2022/08/03 14:28:08;;;;;;;;;;;34.90;38.70;;;;;;4945929;29;19917;-86
2022/08/03 14:30:34;;;;;;;;;;;34.50;39.50;;;;;;4945717;29;20336;-86